Time;durP1;ratioP1;P1;durP2;ratioP2;P2;SDS_P1;SDS_P2;PMS_P1;PMS_P2;Temp;Humidity;BMP_temperature;BMP_pressure;BME280_temperature;BME280_humidity;BME280_pressure;Samples;Min_cycle;Max_cycle;Signal;HPM_P1;HPM_P2
2022/10/07 00:01:13;;;;;;;8.10;3.95;;;12.30;94.90;;;;;;5010481;28;20084;-69
2022/10/07 00:03:39;;;;;;;7.30;4.57;;;12.30;94.90;;;;;;5012573;28;20509;-69
2022/10/07 00:06:17;;;;;;;7.53;3.55;;;12.30;94.90;;;;;;5013443;28;20531;-69
2022/10/07 00:08:46;;;;;;;7.47;4.05;;;12.20;94.70;;;;;;5015530;28;20029;-69
2022/10/07 00:11:19;;;;;;;8.45;3.85;;;12.20;94.80;;;;;;5017526;28;20028;-69
2022/10/07 00:13:47;;;;;;;8.75;4.18;;;12.20;94.90;;;;;;5008744;28;20069;-70
2022/10/07 00:16:19;;;;;;;6.93;3.65;;;12.20;94.90;;;;;;5003334;28;20037;-70
2022/10/07 00:18:47;;;;;;;6.97;3.10;;;12.20;94.90;;;;;;5003396;28;20112;-70
2022/10/07 00:21:15;;;;;;;9.13;3.83;;;12.20;94.80;;;;;;5011329;28;20119;-70
2022/10/07 00:23:42;;;;;;;5.13;3.53;;;12.20;94.80;;;;;;5001629;28;20030;-70
2022/10/07 00:26:10;;;;;;;7.85;4.13;;;12.10;94.90;;;;;;4993608;28;20093;-70
2022/10/07 00:28:36;;;;;;;7.93;4.50;;;12.10;95.10;;;;;;5003259;28;20108;-70
2022/10/07 00:31:05;;;;;;;8.50;4.10;;;12.00;95.20;;;;;;4994546;28;20126;-70
2022/10/07 00:33:34;;;;;;;6.97;4.47;;;12.00;95.30;;;;;;4997223;28;20046;-70
2022/10/07 00:36:00;;;;;;;8.85;5.22;;;12.00;95.40;;;;;;5002338;28;20485;-70
2022/10/07 00:38:26;;;;;;;7.63;3.97;;;12.00;95.30;;;;;;5003086;28;20049;-69
2022/10/07 00:40:51;;;;;;;7.13;4.28;;;12.00;95.40;;;;;;5001857;28;20362;-69
2022/10/07 00:43:22;;;;;;;7.95;5.00;;;11.90;95.40;;;;;;5007519;28;20050;-69
2022/10/07 00:45:48;;;;;;;8.27;4.80;;;11.90;95.50;;;;;;4988564;28;20052;-69
2022/10/07 00:48:19;;;;;;;10.27;5.07;;;11.80;95.60;;;;;;5005415;28;20551;-70
2022/10/07 00:50:49;;;;;;;8.52;4.72;;;11.90;95.70;;;;;;4989269;28;20046;-70
2022/10/07 00:53:15;;;;;;;8.68;4.07;;;11.80;95.70;;;;;;5005908;28;20042;-69
2022/10/07 00:55:41;;;;;;;6.05;4.43;;;11.80;95.80;;;;;;5009661;28;20087;-69
2022/10/07 00:58:08;;;;;;;7.88;4.80;;;11.70;95.80;;;;;;5018065;28;20030;-70
2022/10/07 01:00:36;;;;;;;9.43;4.72;;;11.70;95.90;;;;;;4999987;28;20046;-69
2022/10/07 01:03:02;;;;;;;8.77;4.47;;;11.70;96.00;;;;;;5005720;28;20027;-70
2022/10/07 01:05:28;;;;;;;9.30;5.45;;;11.70;96.00;;;;;;4992915;28;20035;-69
2022/10/07 01:07:54;;;;;;;11.60;4.97;;;11.70;96.00;;;;;;5001945;28;20034;-70
2022/10/07 01:10:21;;;;;;;10.80;4.80;;;11.70;96.00;;;;;;5004228;28;20033;-70
2022/10/07 01:13:05;;;;;;;6.78;4.57;;;11.70;96.10;;;;;;5012105;28;20033;-70
2022/10/07 01:16:03;;;;;;;8.77;4.63;;;11.70;96.10;;;;;;4991620;28;20199;-69
2022/10/07 01:18:49;;;;;;;9.55;5.30;;;11.70;96.00;;;;;;5009686;28;20065;-70
2022/10/07 01:21:37;;;;;;;9.05;5.28;;;11.60;95.90;;;;;;5006159;28;20374;-69
2022/10/07 01:24:10;;;;;;;8.05;4.78;;;11.60;95.90;;;;;;4991047;28;20038;-69
2022/10/07 01:26:42;;;;;;;9.57;4.65;;;11.60;95.80;;;;;;4988720;28;20394;-69
2022/10/07 01:29:21;;;;;;;7.70;4.85;;;11.60;95.90;;;;;;4999870;28;20030;-69
2022/10/07 01:32:03;;;;;;;8.30;4.97;;;11.50;95.80;;;;;;5002867;28;20654;-70
2022/10/07 01:34:33;;;;;;;8.80;4.50;;;11.60;95.90;;;;;;4999380;28;20478;-69
2022/10/07 01:37:01;;;;;;;7.13;4.25;;;11.50;95.90;;;;;;5006891;28;20374;-68
2022/10/07 01:39:32;;;;;;;8.07;4.65;;;11.50;96.00;;;;;;5003373;28;20030;-68
2022/10/07 01:41:58;;;;;;;9.38;4.13;;;11.50;96.10;;;;;;5001495;28;20240;-68
2022/10/07 01:44:28;;;;;;;6.40;3.95;;;11.50;96.00;;;;;;4980926;28;20030;-68
2022/10/07 01:46:54;;;;;;;11.95;4.80;;;11.40;96.00;;;;;;4982808;28;20022;-68
2022/10/07 01:49:20;;;;;;;8.55;4.50;;;11.40;96.10;;;;;;4998674;28;20037;-68
2022/10/07 01:52:02;;;;;;;9.15;4.97;;;11.40;96.10;;;;;;5003215;28;20109;-69
2022/10/07 01:54:34;;;;;;;8.32;4.53;;;11.40;96.20;;;;;;5004422;28;20037;-68
2022/10/07 01:57:00;;;;;;;9.27;4.90;;;11.40;96.20;;;;;;4999571;28;20586;-69
2022/10/07 01:59:55;;;;;;;8.27;4.32;;;11.30;96.30;;;;;;5001689;28;20034;-69
2022/10/07 02:02:35;;;;;;;7.68;4.10;;;11.30;96.30;;;;;;4992970;28;20453;-68
2022/10/07 02:05:26;;;;;;;8.90;5.15;;;11.30;96.30;;;;;;5001330;28;20041;-68
2022/10/07 02:08:21;;;;;;;9.32;4.72;;;11.30;96.40;;;;;;5001199;28;20502;-69
2022/10/07 02:11:11;;;;;;;6.85;4.32;;;11.20;96.40;;;;;;4997512;28;20030;-69
2022/10/07 02:13:49;;;;;;;7.88;4.60;;;11.20;96.60;;;;;;5001530;28;20517;-69
2022/10/07 02:16:25;;;;;;;9.30;4.70;;;11.20;96.70;;;;;;4989677;28;20030;-69
2022/10/07 02:18:52;;;;;;;8.95;4.50;;;11.20;96.70;;;;;;5003248;28;20026;-69
2022/10/07 02:21:25;;;;;;;8.30;4.03;;;11.20;96.70;;;;;;4997080;28;20061;-69
2022/10/07 02:23:53;;;;;;;7.90;4.38;;;11.20;96.70;;;;;;5003621;28;20072;-69
2022/10/07 02:26:21;;;;;;;7.15;4.40;;;11.10;96.70;;;;;;5000262;28;20456;-69
2022/10/07 02:28:51;;;;;;;7.53;4.53;;;11.10;96.80;;;;;;4998048;28;20023;-69
2022/10/07 02:31:21;;;;;;;11.63;5.43;;;11.10;96.80;;;;;;5011941;28;20033;-69
2022/10/07 02:33:49;;;;;;;9.27;4.22;;;11.10;96.80;;;;;;5002892;28;20050;-69
2022/10/07 02:36:22;;;;;;;5.75;4.20;;;11.10;96.80;;;;;;4983007;28;20051;-68
2022/10/07 02:38:48;;;;;;;7.60;4.60;;;11.00;96.80;;;;;;4997067;28;20054;-68
2022/10/07 02:41:30;;;;;;;7.78;4.18;;;11.00;96.90;;;;;;5012395;28;20045;-69
2022/10/07 02:44:30;;;;;;;7.55;4.50;;;11.00;96.90;;;;;;5003835;28;20037;-69
2022/10/07 02:47:34;;;;;;;10.27;4.55;;;11.00;97.20;;;;;;4990985;28;20061;-69
2022/10/07 02:50:05;;;;;;;7.10;4.15;;;11.00;97.10;;;;;;4914542;29;20180;-68
2022/10/07 02:52:32;;;;;;;7.13;4.35;;;10.90;97.10;;;;;;4982728;28;20042;-69
2022/10/07 02:55:03;;;;;;;7.43;4.30;;;11.00;97.10;;;;;;5013582;28;20037;-69
2022/10/07 02:57:33;;;;;;;5.93;4.05;;;10.90;97.10;;;;;;5001874;28;20050;-68
2022/10/07 03:00:00;;;;;;;9.20;4.13;;;10.90;97.20;;;;;;5013589;28;20026;-68
2022/10/07 03:03:01;;;;;;;8.35;4.60;;;10.90;97.20;;;;;;5015029;28;20026;-68
2022/10/07 03:05:28;;;;;;;9.25;4.15;;;10.90;97.20;;;;;;4997310;28;20034;-69
2022/10/07 03:08:02;;;;;;;7.30;4.00;;;10.90;97.20;;;;;;5002622;28;20026;-68
2022/10/07 03:10:29;;;;;;;8.85;4.28;;;10.90;97.20;;;;;;5003859;28;20107;-68
2022/10/07 03:12:54;;;;;;;7.97;4.35;;;10.90;97.20;;;;;;5012215;28;20092;-68
2022/10/07 03:15:24;;;;;;;9.35;4.03;;;10.90;97.20;;;;;;5004101;28;20033;-68
2022/10/07 03:17:49;;;;;;;6.93;4.60;;;10.90;97.30;;;;;;4997927;28;20022;-68
2022/10/07 03:20:15;;;;;;;7.25;4.28;;;10.80;97.20;;;;;;5005069;28;20048;-68
2022/10/07 03:22:44;;;;;;;8.40;4.63;;;10.80;97.30;;;;;;5000694;28;20180;-68
2022/10/07 03:25:11;;;;;;;12.07;5.03;;;10.80;97.30;;;;;;5002152;28;20029;-68
2022/10/07 03:27:39;;;;;;;11.98;4.70;;;10.80;97.30;;;;;;4997309;28;20065;-68
2022/10/07 03:30:05;;;;;;;10.80;4.85;;;10.80;97.30;;;;;;5005231;28;20037;-68
2022/10/07 03:32:32;;;;;;;10.35;4.50;;;10.80;97.30;;;;;;5003751;28;20037;-68
2022/10/07 03:34:58;;;;;;;7.22;4.65;;;10.80;97.30;;;;;;5010457;28;20041;-68
2022/10/07 03:37:24;;;;;;;8.32;5.07;;;10.80;97.20;;;;;;5001648;28;20022;-68
2022/10/07 03:39:51;;;;;;;6.85;3.92;;;10.80;97.20;;;;;;5003976;28;20397;-68
2022/10/07 03:42:16;;;;;;;10.52;5.07;;;10.80;97.30;;;;;;5002756;28;20034;-68
2022/10/07 03:44:42;;;;;;;6.68;3.92;;;10.70;97.30;;;;;;4999973;28;20396;-69
2022/10/07 03:47:08;;;;;;;7.10;4.40;;;10.70;97.40;;;;;;4994031;28;20128;-69
2022/10/07 03:49:34;;;;;;;10.07;4.50;;;10.70;97.40;;;;;;4990526;28;20033;-69
2022/10/07 03:52:02;;;;;;;6.47;4.07;;;10.70;97.50;;;;;;4995997;28;20029;-69
2022/10/07 03:54:28;;;;;;;8.80;4.97;;;10.70;97.50;;;;;;5008731;28;20475;-69
2022/10/07 03:56:54;;;;;;;6.15;4.25;;;10.60;97.50;;;;;;5012600;28;20046;-69
2022/10/07 03:59:20;;;;;;;9.75;4.82;;;10.60;97.50;;;;;;5001628;28;20534;-69
2022/10/07 04:01:46;;;;;;;5.60;4.20;;;10.60;97.40;;;;;;4980605;28;20045;-69
2022/10/07 04:04:11;;;;;;;7.97;4.35;;;10.60;97.50;;;;;;4995170;28;20035;-69
2022/10/07 04:06:37;;;;;;;7.00;4.18;;;10.50;97.50;;;;;;5025782;28;20026;-69
2022/10/07 04:09:04;;;;;;;8.90;4.32;;;10.60;97.60;;;;;;5004070;28;20022;-69
2022/10/07 04:11:30;;;;;;;6.57;4.15;;;10.50;97.60;;;;;;4999098;28;20106;-69
2022/10/07 04:13:59;;;;;;;9.95;4.57;;;10.50;97.60;;;;;;5003093;28;20129;-69
2022/10/07 04:16:26;;;;;;;9.35;4.90;;;10.50;97.70;;;;;;5007272;28;20084;-69
2022/10/07 04:18:55;;;;;;;8.68;5.25;;;10.50;97.70;;;;;;4995574;28;20041;-69
2022/10/07 04:21:21;;;;;;;10.30;5.10;;;10.50;97.60;;;;;;5012318;28;20481;-69
2022/10/07 04:23:47;;;;;;;9.45;5.10;;;10.40;97.60;;;;;;4993607;28;20544;-69
2022/10/07 04:26:13;;;;;;;8.18;4.53;;;10.40;97.60;;;;;;4998018;28;20022;-69
2022/10/07 04:28:39;;;;;;;8.27;4.85;;;10.40;97.70;;;;;;4994117;28;20501;-69
2022/10/07 04:31:07;;;;;;;8.30;5.22;;;10.40;97.70;;;;;;5003594;28;20400;-69
2022/10/07 04:33:36;;;;;;;10.98;4.97;;;10.40;97.70;;;;;;5000215;28;20030;-69
2022/10/07 04:36:08;;;;;;;11.30;5.28;;;10.30;97.70;;;;;;5020215;28;20022;-69
2022/10/07 04:38:33;;;;;;;11.48;5.30;;;10.30;97.80;;;;;;5003967;28;20034;-69
2022/10/07 04:41:03;;;;;;;13.55;5.55;;;10.30;97.70;;;;;;4995692;28;20027;-68
2022/10/07 04:43:32;;;;;;;8.13;4.78;;;10.30;97.70;;;;;;4994051;28;20026;-68
2022/10/07 04:46:08;;;;;;;7.88;4.93;;;10.20;97.70;;;;;;5003580;28;20526;-68
2022/10/07 04:48:34;;;;;;;10.10;5.50;;;10.20;97.80;;;;;;4994154;28;20110;-68
2022/10/07 04:51:08;;;;;;;7.32;4.93;;;10.20;97.80;;;;;;5011671;28;20041;-69
2022/10/07 04:53:35;;;;;;;11.45;5.50;;;10.20;97.90;;;;;;4993808;28;20060;-69
2022/10/07 04:56:01;;;;;;;8.35;4.88;;;10.20;97.90;;;;;;5001226;28;20084;-69
2022/10/07 04:58:28;;;;;;;7.28;4.60;;;10.20;97.90;;;;;;4993750;28;20041;-69
2022/10/07 05:00:55;;;;;;;6.80;4.53;;;10.20;98.00;;;;;;5011804;28;20369;-69
2022/10/07 05:03:23;;;;;;;10.80;4.75;;;10.10;98.00;;;;;;4995264;28;20034;-69
2022/10/07 05:05:52;;;;;;;8.85;4.38;;;10.20;98.00;;;;;;5020078;28;20388;-70
2022/10/07 05:08:23;;;;;;;8.27;4.68;;;10.10;97.90;;;;;;4999398;28;20153;-69
2022/10/07 05:10:56;;;;;;;8.00;4.40;;;10.10;98.00;;;;;;5005907;28;20048;-69
2022/10/07 05:13:24;;;;;;;8.85;4.97;;;10.10;98.00;;;;;;4993873;28;20485;-69
2022/10/07 05:15:52;;;;;;;6.63;4.20;;;10.10;98.00;;;;;;5001878;28;20117;-69
2022/10/07 05:18:19;;;;;;;8.07;4.93;;;10.10;98.10;;;;;;5008428;28;20029;-69
2022/10/07 05:20:47;;;;;;;9.13;4.40;;;10.10;98.10;;;;;;5007198;28;20023;-70
2022/10/07 05:23:18;;;;;;;8.32;5.03;;;10.10;98.20;;;;;;4992778;28;20038;-70
2022/10/07 05:25:43;;;;;;;8.20;4.57;;;10.10;98.20;;;;;;4992738;28;20030;-70
2022/10/07 05:28:10;;;;;;;9.35;4.53;;;10.10;98.20;;;;;;4993861;28;20433;-70
2022/10/07 05:30:37;;;;;;;9.38;4.32;;;10.10;98.30;;;;;;4993362;28;20102;-70
2022/10/07 05:33:03;;;;;;;6.88;4.50;;;10.10;98.30;;;;;;4996893;28;20030;-69
2022/10/07 05:35:30;;;;;;;9.70;4.90;;;10.10;98.30;;;;;;4982668;28;20069;-69
2022/10/07 05:37:56;;;;;;;7.30;4.53;;;10.10;98.30;;;;;;4999361;28;20382;-69
2022/10/07 05:40:21;;;;;;;8.23;4.35;;;10.10;98.30;;;;;;5000396;28;20033;-69
2022/10/07 05:42:47;;;;;;;9.82;4.38;;;10.10;98.40;;;;;;5001080;28;20033;-69
2022/10/07 05:45:13;;;;;;;8.52;4.40;;;10.10;98.40;;;;;;4986425;28;20030;-69
2022/10/07 05:47:39;;;;;;;6.97;4.65;;;10.10;98.40;;;;;;4989670;28;20491;-70
2022/10/07 05:50:05;;;;;;;7.50;4.90;;;10.10;98.40;;;;;;4985292;28;20096;-69
2022/10/07 05:52:31;;;;;;;8.23;5.13;;;10.10;98.40;;;;;;4993766;28;20034;-70
2022/10/07 05:54:57;;;;;;;9.00;4.65;;;10.10;98.40;;;;;;5009623;28;20045;-70
2022/10/07 05:57:23;;;;;;;11.02;4.63;;;10.10;98.40;;;;;;4995401;28;20520;-72
2022/10/07 05:59:50;;;;;;;13.52;7.22;;;10.10;98.40;;;;;;4992571;28;20029;-70
2022/10/07 06:02:17;;;;;;;10.57;4.70;;;10.10;98.50;;;;;;4999112;28;20034;-70
2022/10/07 06:04:46;;;;;;;11.95;4.68;;;10.10;98.50;;;;;;5005709;28;20354;-70
2022/10/07 06:07:12;;;;;;;7.15;4.85;;;10.20;98.60;;;;;;4992250;28;20124;-69
2022/10/07 06:15:08;;;;;;;9.32;4.75;;;10.20;98.60;;;;;;5010395;28;20363;-70
2022/10/07 06:17:44;;;;;;;7.32;5.43;;;10.30;98.60;;;;;;5009486;28;20038;-71
2022/10/07 06:20:12;;;;;;;8.30;4.90;;;10.30;98.60;;;;;;5010421;28;20022;-71
2022/10/07 06:22:38;;;;;;;8.90;6.43;;;10.30;98.60;;;;;;5010116;28;20705;-71
2022/10/07 06:25:05;;;;;;;12.25;5.93;;;10.40;98.60;;;;;;5003005;28;20097;-70
2022/10/07 06:27:31;;;;;;;9.85;5.95;;;10.40;98.70;;;;;;5003501;28;20034;-71
2022/10/07 06:29:57;;;;;;;10.98;6.95;;;10.40;98.70;;;;;;5011460;28;20113;-71
2022/10/07 06:32:22;;;;;;;11.60;5.65;;;10.40;98.70;;;;;;5010126;28;20030;-70
2022/10/07 06:34:48;;;;;;;12.18;5.80;;;10.40;98.70;;;;;;5010742;28;20038;-71
2022/10/07 06:37:14;;;;;;;9.50;6.63;;;10.50;98.70;;;;;;5009462;28;20026;-71
2022/10/07 06:39:39;;;;;;;9.95;6.00;;;10.50;98.70;;;;;;5017972;28;20524;-70
2022/10/07 06:42:05;;;;;;;8.90;6.07;;;10.50;98.70;;;;;;5007257;28;20104;-71
2022/10/07 06:44:31;;;;;;;12.23;6.20;;;10.50;98.70;;;;;;4997708;28;20034;-71
2022/10/07 06:46:56;;;;;;;11.57;6.72;;;10.60;98.70;;;;;;5004688;28;20030;-71
2022/10/07 06:49:22;;;;;;;8.80;5.95;;;10.70;98.70;;;;;;4992241;28;20534;-71
2022/10/07 06:51:48;;;;;;;9.73;6.40;;;10.70;98.70;;;;;;5009518;28;20049;-71
2022/10/07 06:54:14;;;;;;;11.30;6.15;;;10.70;98.70;;;;;;4995789;28;20038;-71
2022/10/07 06:56:39;;;;;;;9.60;5.63;;;10.80;98.60;;;;;;5002189;28;20051;-71
2022/10/07 06:59:06;;;;;;;8.65;5.45;;;10.90;98.70;;;;;;5013500;28;20033;-71
2022/10/07 07:01:32;;;;;;;10.93;5.95;;;10.90;98.70;;;;;;5014635;28;20022;-71
2022/10/07 07:03:58;;;;;;;9.57;6.03;;;11.00;98.70;;;;;;5003788;28;20414;-71
2022/10/07 07:06:24;;;;;;;10.93;6.35;;;11.00;98.70;;;;;;5000045;28;20030;-71
2022/10/07 07:08:53;;;;;;;12.30;5.50;;;11.10;98.70;;;;;;4997805;28;20034;-71
2022/10/07 07:11:39;;;;;;;7.95;5.40;;;11.10;98.70;;;;;;5013996;28;20088;-71
2022/10/07 07:14:09;;;;;;;7.70;5.47;;;11.10;98.70;;;;;;5002645;28;20404;-70
2022/10/07 07:16:34;;;;;;;10.38;6.07;;;11.20;98.60;;;;;;5013009;28;20026;-71
2022/10/07 07:19:07;;;;;;;12.38;5.93;;;11.30;98.60;;;;;;5006414;28;20040;-71
2022/10/07 07:21:34;;;;;;;9.75;6.55;;;11.40;98.60;;;;;;4990399;28;20441;-70
2022/10/07 07:24:01;;;;;;;10.80;5.75;;;11.40;98.50;;;;;;5017870;28;20501;-71
2022/10/07 07:26:28;;;;;;;18.25;6.55;;;11.50;98.50;;;;;;5028318;28;20026;-72
2022/10/07 07:28:58;;;;;;;16.13;6.50;;;11.50;98.70;;;;;;5000264;28;20077;-72
2022/10/07 07:31:25;;;;;;;9.60;5.78;;;11.60;98.80;;;;;;5002722;28;20022;-72
2022/10/07 07:33:51;;;;;;;12.05;5.70;;;11.70;98.70;;;;;;5012818;28;20037;-72
2022/10/07 07:36:21;;;;;;;11.10;6.25;;;11.70;98.70;;;;;;5013104;28;20024;-72
2022/10/07 07:38:50;;;;;;;10.18;5.72;;;11.80;98.70;;;;;;4993065;28;20036;-72
2022/10/07 07:41:17;;;;;;;13.68;6.55;;;11.90;98.70;;;;;;5004064;28;20408;-72
2022/10/07 07:43:48;;;;;;;9.88;5.55;;;11.90;98.60;;;;;;5013403;28;20026;-72
2022/10/07 07:46:13;;;;;;;8.13;5.65;;;12.00;98.60;;;;;;5008275;28;20025;-72
2022/10/07 07:48:39;;;;;;;11.00;5.95;;;12.00;98.50;;;;;;5002320;28;20023;-71
2022/10/07 07:51:05;;;;;;;8.10;5.32;;;12.10;98.40;;;;;;5000335;28;20029;-71
2022/10/07 07:53:31;;;;;;;11.32;6.00;;;12.20;98.40;;;;;;4996695;28;20042;-71
2022/10/07 07:55:56;;;;;;;7.22;5.30;;;12.20;98.30;;;;;;4997939;28;20512;-72
2022/10/07 07:58:23;;;;;;;9.77;5.50;;;12.30;98.20;;;;;;5012394;28;20033;-72
2022/10/07 08:01:07;;;;;;;10.65;5.72;;;12.40;98.20;;;;;;5007339;28;20088;-72
2022/10/07 08:03:36;;;;;;;8.95;6.25;;;12.50;98.20;;;;;;5004753;28;20044;-72
2022/10/07 08:06:03;;;;;;;10.13;5.70;;;12.50;98.10;;;;;;4993895;28;20030;-72
2022/10/07 08:08:29;;;;;;;10.88;5.32;;;12.60;98.00;;;;;;4999957;28;20030;-72
2022/10/07 08:10:55;;;;;;;8.57;4.97;;;12.60;97.90;;;;;;5012086;28;20654;-72
2022/10/07 08:13:21;;;;;;;9.10;5.53;;;12.70;98.00;;;;;;4998065;28;20038;-72
2022/10/07 08:15:46;;;;;;;11.65;6.05;;;12.80;97.90;;;;;;4980376;28;20026;-72
2022/10/07 08:18:12;;;;;;;12.25;5.85;;;12.80;97.80;;;;;;4995407;28;20027;-72
2022/10/07 08:20:38;;;;;;;10.57;5.22;;;12.90;97.80;;;;;;5000797;28;20416;-72
2022/10/07 08:23:05;;;;;;;9.10;4.82;;;13.00;97.70;;;;;;4997453;28;20072;-72
2022/10/07 08:25:31;;;;;;;11.90;4.55;;;13.00;97.60;;;;;;5001056;28;20224;-72
2022/10/07 08:27:57;;;;;;;13.18;4.97;;;13.10;97.50;;;;;;5004688;28;20378;-72
2022/10/07 08:30:23;;;;;;;8.63;4.60;;;13.20;97.40;;;;;;4997887;28;20029;-74
2022/10/07 08:32:49;;;;;;;13.50;4.75;;;13.30;97.30;;;;;;5000237;28;20023;-73
2022/10/07 08:35:15;;;;;;;7.03;3.95;;;13.30;97.10;;;;;;5002569;28;20030;-73
2022/10/07 08:37:41;;;;;;;9.68;5.22;;;13.40;97.10;;;;;;5006041;28;20030;-73
2022/10/07 08:40:12;;;;;;;6.25;4.22;;;13.50;97.00;;;;;;5005807;28;20037;-73
2022/10/07 08:42:40;;;;;;;5.95;3.55;;;13.60;97.00;;;;;;5004239;28;20050;-73
2022/10/07 08:45:10;;;;;;;8.60;3.95;;;13.60;97.00;;;;;;5007802;28;20037;-73
2022/10/07 08:47:44;;;;;;;7.40;3.90;;;13.70;96.90;;;;;;5006981;28;20098;-73
2022/10/07 08:50:25;;;;;;;5.57;3.75;;;13.70;96.80;;;;;;5003728;28;20026;-73
2022/10/07 08:53:05;;;;;;;7.07;3.67;;;13.80;96.70;;;;;;5008011;28;20034;-73
2022/10/07 08:55:43;;;;;;;7.60;3.90;;;13.90;96.60;;;;;;5005814;28;20137;-73
2022/10/07 08:58:44;;;;;;;6.68;3.60;;;14.00;96.50;;;;;;5003145;28;20065;-73
2022/10/07 09:01:33;;;;;;;7.93;3.50;;;14.00;96.30;;;;;;5009872;28;20030;-73
2022/10/07 09:04:38;;;;;;;5.57;3.67;;;14.10;96.20;;;;;;5006790;28;20030;-74
2022/10/07 09:07:15;;;;;;;5.80;3.10;;;14.20;96.10;;;;;;4988547;28;20120;-73
2022/10/07 09:09:58;;;;;;;8.43;3.53;;;14.30;96.00;;;;;;5001114;28;20038;-73
2022/10/07 09:12:32;;;;;;;7.35;3.97;;;14.30;95.90;;;;;;5006689;28;20489;-73
2022/10/07 09:14:59;;;;;;;8.20;3.25;;;14.40;95.70;;;;;;5007008;28;20048;-73
2022/10/07 09:17:38;;;;;;;9.48;3.83;;;14.40;95.70;;;;;;5003382;28;20031;-73
2022/10/07 09:20:18;;;;;;;5.60;3.28;;;14.50;95.70;;;;;;5004910;28;20034;-73
2022/10/07 09:22:53;;;;;;;6.15;3.30;;;14.50;95.50;;;;;;5011344;28;20052;-74
2022/10/07 09:25:26;;;;;;;8.68;3.33;;;14.50;95.50;;;;;;5001950;28;20030;-73
2022/10/07 09:27:53;;;;;;;5.38;3.50;;;14.60;95.40;;;;;;4981623;28;20026;-74
2022/10/07 09:30:21;;;;;;;4.32;3.05;;;14.70;95.40;;;;;;4999532;28;20022;-73
2022/10/07 09:32:51;;;;;;;5.53;3.03;;;14.80;95.30;;;;;;4999678;28;20033;-73
2022/10/07 09:35:20;;;;;;;9.50;3.88;;;14.80;95.30;;;;;;4993696;28;20042;-73
2022/10/07 09:38:09;;;;;;;7.70;3.20;;;14.90;95.20;;;;;;4986203;28;20033;-73
2022/10/07 09:41:13;;;;;;;5.43;3.13;;;15.00;95.20;;;;;;5003051;28;20065;-74
2022/10/07 09:43:23;;;;;;;7.43;3.50;;;15.00;95.10;;;;;;5006131;28;20509;-73
2022/10/07 09:45:48;;;;;;;10.73;2.90;;;15.10;95.00;;;;;;5004496;28;20036;-74
2022/10/07 09:48:24;;;;;;;7.60;2.78;;;15.10;95.10;;;;;;5000097;28;20022;-73
2022/10/07 09:50:50;;;;;;;6.45;3.05;;;15.20;94.80;;;;;;4995296;28;20026;-72
2022/10/07 09:53:25;;;;;;;5.53;3.67;;;15.30;94.60;;;;;;5001388;28;20038;-73
2022/10/07 09:55:52;;;;;;;;;;;15.40;94.50;;;;;;4992792;28;20086;-73
2022/10/07 09:58:30;;;;;;;5.03;2.60;;;15.40;94.80;;;;;;4994826;28;19913;-73
2022/10/07 10:00:58;;;;;;;8.88;4.25;;;15.50;94.60;;;;;;4992423;28;20025;-73
2022/10/07 10:03:32;;;;;;;7.07;3.22;;;15.50;94.30;;;;;;4993416;28;20524;-73
2022/10/07 10:06:01;;;;;;;8.85;3.45;;;15.60;94.10;;;;;;4995020;28;20030;-73
2022/10/07 10:08:30;;;;;;;7.38;3.00;;;15.70;94.30;;;;;;5003391;28;20058;-73
2022/10/07 10:11:01;;;;;;;7.05;3.25;;;15.70;94.10;;;;;;4995721;28;20665;-74
2022/10/07 10:13:29;;;;;;;6.65;3.20;;;15.80;94.00;;;;;;4995800;28;20045;-74
2022/10/07 10:15:57;;;;;;;6.35;3.08;;;15.90;93.80;;;;;;4997785;28;20028;-74
2022/10/07 10:18:22;;;;;;;8.30;3.05;;;15.90;93.80;;;;;;5003075;28;20030;-73
2022/10/07 10:20:48;;;;;;;10.48;3.75;;;16.00;93.70;;;;;;5011097;28;20033;-74
2022/10/07 10:23:34;;;;;;;6.25;3.00;;;16.00;93.60;;;;;;5008055;28;20113;-74
2022/10/07 10:26:28;;;;;;;6.13;3.10;;;16.10;93.50;;;;;;4996218;28;20084;-75
2022/10/07 10:29:11;;;;;;;11.60;3.22;;;16.20;93.40;;;;;;5008581;28;20117;-73
2022/10/07 10:32:00;;;;;;;4.22;2.63;;;16.20;93.10;;;;;;5010297;28;20041;-75
2022/10/07 10:34:37;;;;;;;6.22;2.88;;;16.30;92.90;;;;;;5001089;28;20029;-74
2022/10/07 10:37:22;;;;;;;4.43;2.65;;;16.30;93.00;;;;;;5006287;28;20034;-73
2022/10/07 10:39:58;;;;;;;5.22;2.60;;;16.40;92.80;;;;;;5010680;28;20524;-74
2022/10/07 10:42:50;;;;;;;4.95;2.72;;;16.40;92.70;;;;;;5007076;28;20030;-72
2022/10/07 10:45:37;;;;;;;6.13;2.53;;;16.50;92.60;;;;;;4995441;28;20121;-74
2022/10/07 10:48:27;;;;;;;4.47;2.42;;;16.50;92.50;;;;;;5010109;28;20040;-73
2022/10/07 10:51:24;;;;;;;5.50;2.60;;;16.60;92.40;;;;;;5008726;28;20153;-72
2022/10/07 10:54:10;;;;;;;5.45;2.42;;;16.70;92.20;;;;;;4996161;28;20046;-73
2022/10/07 10:56:43;;;;;;;9.15;2.70;;;16.70;92.10;;;;;;5003710;28;20490;-72
2022/10/07 10:59:24;;;;;;;6.20;3.30;;;16.80;92.00;;;;;;5005550;28;20088;-72
2022/10/07 11:02:10;;;;;;;5.72;2.42;;;16.90;92.00;;;;;;5012059;28;20033;-73
2022/10/07 11:04:49;;;;;;;5.30;2.50;;;16.90;91.90;;;;;;4992857;28;20042;-73
2022/10/07 11:07:24;;;;;;;5.80;2.33;;;17.00;91.70;;;;;;4999285;28;20045;-74
2022/10/07 11:10:04;;;;;;;7.63;3.67;;;17.00;91.50;;;;;;5001028;28;20038;-73
2022/10/07 11:12:38;;;;;;;8.18;2.63;;;17.00;91.40;;;;;;4999403;28;20053;-73
2022/10/07 11:15:15;;;;;;;8.52;2.35;;;17.10;91.60;;;;;;5011116;28;20141;-72
2022/10/07 11:17:41;;;;;;;4.80;2.70;;;17.20;91.40;;;;;;5012898;28;20104;-73
2022/10/07 11:20:17;;;;;;;6.75;2.90;;;17.20;91.40;;;;;;4996453;28;20045;-73
2022/10/07 11:22:50;;;;;;;4.88;2.40;;;17.20;91.00;;;;;;5009734;28;20034;-72
2022/10/07 11:25:32;;;;;;;5.20;2.42;;;17.30;91.10;;;;;;5014390;28;20022;-72
2022/10/07 11:28:08;;;;;;;5.97;2.40;;;17.40;90.80;;;;;;5007405;28;20465;-71
2022/10/07 11:30:46;;;;;;;7.65;2.90;;;17.40;90.60;;;;;;5014901;28;20057;-71
2022/10/07 11:33:26;;;;;;;6.82;2.40;;;17.50;90.50;;;;;;5012943;28;20034;-71
2022/10/07 11:36:02;;;;;;;6.50;2.28;;;17.50;90.20;;;;;;4999247;28;20041;-72
2022/10/07 11:38:35;;;;;;;6.93;2.42;;;17.60;90.10;;;;;;4994300;28;20034;-72
2022/10/07 11:41:16;;;;;;;4.78;2.40;;;17.60;90.00;;;;;;5004105;28;20076;-72
2022/10/07 11:43:46;;;;;;;3.67;1.95;;;17.60;89.90;;;;;;4995226;28;20481;-72
2022/10/07 11:46:18;;;;;;;3.45;2.17;;;17.70;89.30;;;;;;5004450;28;20121;-72
2022/10/07 11:48:51;;;;;;;6.45;1.88;;;17.70;88.40;;;;;;4999350;28;20054;-72
2022/10/07 11:51:55;;;;;;;4.28;1.77;;;17.80;88.20;;;;;;5000155;28;20108;-71
2022/10/07 11:54:26;;;;;;;4.40;2.30;;;17.80;88.50;;;;;;5000534;28;20039;-72
2022/10/07 11:56:55;;;;;;;7.35;3.05;;;17.80;88.20;;;;;;4995273;28;20047;-71
2022/10/07 11:59:44;;;;;;;4.63;2.42;;;17.90;87.90;;;;;;5009344;28;20030;-72
2022/10/07 12:02:28;;;;;;;7.57;2.95;;;17.90;87.90;;;;;;5007569;28;20057;-72
2022/10/07 12:04:59;;;;;;;4.80;2.03;;;17.90;88.00;;;;;;4993233;28;20025;-72
2022/10/07 12:07:54;;;;;;;4.93;2.28;;;18.00;87.20;;;;;;4999836;28;20026;-72
2022/10/07 12:10:26;;;;;;;5.88;2.20;;;18.00;87.10;;;;;;4993200;28;20486;-71
2022/10/07 12:12:58;;;;;;;3.95;2.30;;;18.00;87.40;;;;;;4999847;28;20102;-72
2022/10/07 12:15:43;;;;;;;4.50;2.08;;;18.10;86.80;;;;;;4992700;28;20462;-72
2022/10/07 12:18:09;;;;;;;4.00;2.30;;;18.00;86.20;;;;;;5002370;28;20389;-72
2022/10/07 12:20:45;;;;;;;4.70;2.28;;;18.10;86.10;;;;;;4991301;28;20022;-72
2022/10/07 12:23:19;;;;;;;4.70;2.33;;;18.10;86.30;;;;;;4997371;28;20423;-71
2022/10/07 12:25:52;;;;;;;5.10;2.28;;;18.10;86.70;;;;;;4994247;28;20244;-71
2022/10/07 12:28:38;;;;;;;3.70;2.30;;;18.10;86.60;;;;;;5003750;28;20442;-71
2022/10/07 12:31:15;;;;;;;5.07;2.13;;;18.20;85.30;;;;;;5009752;28;20109;-72
2022/10/07 12:33:43;;;;;;;5.47;2.95;;;18.20;86.00;;;;;;5001876;28;20400;-71
2022/10/07 12:36:22;;;;;;;4.28;2.22;;;18.20;85.10;;;;;;4991054;28;20053;-71
2022/10/07 12:39:08;;;;;;;5.35;2.10;;;18.30;85.00;;;;;;5001621;28;20440;-72
2022/10/07 12:41:41;;;;;;;4.97;2.03;;;18.30;84.60;;;;;;4984135;28;20092;-72
2022/10/07 12:44:07;;;;;;;6.60;2.10;;;18.30;83.70;;;;;;5004228;28;20394;-71
2022/10/07 12:46:59;;;;;;;4.25;2.40;;;18.30;83.60;;;;;;5013234;28;20028;-71
2022/10/07 12:49:50;;;;;;;6.28;2.90;;;18.30;83.90;;;;;;5006833;28;20477;-71
2022/10/07 12:52:35;;;;;;;4.63;2.20;;;18.40;83.50;;;;;;5004916;28;20026;-72
2022/10/07 12:55:09;;;;;;;4.25;1.92;;;18.40;83.80;;;;;;5002350;28;20062;-71
2022/10/07 12:57:39;;;;;;;4.15;1.95;;;18.40;83.60;;;;;;5010427;28;20041;-71
2022/10/07 13:00:20;;;;;;;4.43;2.33;;;18.40;83.90;;;;;;5015026;28;20446;-71
2022/10/07 13:03:23;;;;;;;9.18;2.50;;;18.50;83.90;;;;;;5005573;28;20556;-71
2022/10/07 13:06:13;;;;;;;5.05;2.30;;;18.60;83.60;;;;;;5005929;28;20512;-68
2022/10/07 13:08:48;;;;;;;5.63;2.22;;;18.60;83.70;;;;;;4997076;28;20041;-69
2022/10/07 13:11:42;;;;;;;5.28;2.42;;;18.70;83.30;;;;;;5011726;28;20502;-71
2022/10/07 13:14:26;;;;;;;4.53;2.20;;;18.70;83.80;;;;;;5007699;28;20080;-69
2022/10/07 13:17:15;;;;;;;4.97;2.60;;;18.80;83.50;;;;;;4999976;28;20026;-69